Green Stars — V7VZ5 — position and weather

sailwx.info

Track history (hours):
 
Tides and Currents Weather Stations Pressure Air Temp Water Temp Dewpoint Dewpoint Depression Visibility Wind Speed Wind Dir Waves Ship Positions

Green Stars

Last reported at 2014-Jul-31 00:31 UTC. Time now 2014-Jul-31 09:31 UTC.
Position N 35°58' W 000°10'.

Length 182 m; draft 9.9 m.

Type: Tanker. MMSI: 538004247.

Date/timePositionNaut miles runAvg speedWind from/ knotsBaromVisibWave heightAir tempDewpointWater temp
2014-Jul-31 00:31N 35°58' W 000°10'0 0.2
2014-Jul-30 23:32N 35°58' W 000°10'1 0.8
2014-Jul-30 22:33N 35°58' W 000°11'5 4.9
2014-Jul-30 21:27N 35°60' W 000°18'0 0.5
2014-Jul-30 20:32N 35°60' W 000°17'1 0.6
2014-Jul-30 19:33N 35°59' W 000°16'1 0.8
2014-Jul-30 18:20N 35°60' W 000°15'1 0.9
2014-Jul-30 17:32N 35°60' W 000°14'1 1.0
2014-Jul-30 16:33N 35°60' W 000°13'1 1.4
2014-Jul-30 15:33N 36°00' W 000°11'1 1.4
2014-Jul-30 14:33N 36°01' W 000°10'51 8.3
2014-Jul-30 08:29N 36°39' E 000°32'195 6.3
2014-Jul-29 01:24N 37°39' E 004°25'1713.2
2014-Jul-29 00:04N 37°44' E 004°46'1312.8
2014-Jul-28 23:05N 37°48' E 005°01'712.7
2014-Jul-28 22:32N 37°50' E 005°10'2712.9
2014-Jul-28 20:29N 37°59' E 005°42'12413.8
2014-Jul-28 11:29N 38°37' E 008°12'1513.0
2014-Jul-28 10:20N 38°41' E 008°30'1013.0
2014-Jul-28 09:33N 38°44' E 008°43'1312.7
2014-Jul-28 08:33N 38°49' E 008°58'1212.4
2014-Jul-28 07:33N 38°60' E 009°06'5 5.2
2014-Jul-28 06:33N 39°04' E 009°03'0 0.1
2014-Jul-28 05:33N 39°05' E 009°03'0 0.5
2014-Jul-28 04:33N 39°05' E 009°03'1 0.7
2014-Jul-28 03:33N 39°05' E 009°02'0 0.0
2014-Jul-28 02:30N 39°05' E 009°02'0 0.0
2014-Jul-28 01:33N 39°05' E 009°02'0 0.0
2014-Jul-28 00:33N 39°05' E 009°02'0 0.0
2014-Jul-27 23:33N 39°05' E 009°02'0 0.0
2014-Jul-27 22:33N 39°05' E 009°02'0 0.0
2014-Jul-27 21:33N 39°05' E 009°02'0 0.0
2014-Jul-27 20:33N 39°05' E 009°02'0 0.0
2014-Jul-27 19:33N 39°05' E 009°02'0 0.0
2014-Jul-27 18:33N 39°05' E 009°02'0 0.0
2014-Jul-27 17:33N 39°05' E 009°02'0 0.0
2014-Jul-27 16:27N 39°05' E 009°02'0 0.0
2014-Jul-27 15:33N 39°05' E 009°02'0 0.0
2014-Jul-27 14:33N 39°05' E 009°02'0 0.0
2014-Jul-27 13:33N 39°05' E 009°02'0 0.0
2014-Jul-27 12:33N 39°05' E 009°02'0 0.0
2014-Jul-27 11:30N 39°05' E 009°02'0 0.0
2014-Jul-27 10:33N 39°05' E 009°02'0 0.0
2014-Jul-27 09:33N 39°05' E 009°02'0 0.0
2014-Jul-27 08:33N 39°05' E 009°02'0 0.0
2014-Jul-27 07:33N 39°05' E 009°02'0 0.0
2014-Jul-27 06:33N 39°05' E 009°02'0 0.0
2014-Jul-27 05:33N 39°05' E 009°02'0 0.0
2014-Jul-27 04:33N 39°05' E 009°02'0 0.0
2014-Jul-27 03:34N 39°05' E 009°02'1 1.2
2014-Jul-27 02:33N 39°05' E 009°04'3 2.6
2014-Jul-27 01:32N 39°02' E 009°05'0 0.1
2014-Jul-27 00:32N 39°02' E 009°05'0 0.0
2014-Jul-26 23:33N 39°02' E 009°05'0 0.1
2014-Jul-26 22:33N 39°02' E 009°05'3 3.0
2014-Jul-26 21:33N 38°59' E 009°05'7 7.3
2014-Jul-26 20:33N 38°52' E 009°05'2 1.9
2014-Jul-26 19:32N 38°50' E 009°05'9 8.7
2014-Jul-26 18:33N 38°41' E 009°03'1010.0
2014-Jul-26 17:33N 38°32' E 008°60'4 4.0
2014-Jul-26 16:33N 38°28' E 008°57'2 1.8
2014-Jul-26 15:33N 38°29' E 008°55'2 1.8
2014-Jul-26 14:34N 38°30' E 008°53'2 1.7
2014-Jul-26 13:33N 38°30' E 008°51'2 1.6
2014-Jul-26 12:33N 38°30' E 008°49'1 1.4
2014-Jul-26 11:33N 38°30' E 008°47'1 0.7
2014-Jul-26 10:33N 38°30' E 008°46'1 0.5
2014-Jul-26 09:32N 38°31' E 008°46'1 0.7
2014-Jul-26 08:33N 38°31' E 008°46'1 1.2
2014-Jul-26 07:33N 38°31' E 008°48'2 1.8
2014-Jul-26 06:33N 38°32' E 008°50'4 2.1
2014-Jul-26 04:26N 38°35' E 008°55'2 2.3
2014-Jul-26 03:33N 38°36' E 008°57'3 2.3
2014-Jul-26 02:18N 38°38' E 008°59'2 2.3
2014-Jul-26 01:33N 38°39' E 009°01'2 2.3
2014-Jul-26 00:33N 38°40' E 009°04'2 2.1
2014-Jul-25 23:33N 38°42' E 009°05'2 1.8
2014-Jul-25 22:33N 38°43' E 009°07'2 1.6
2014-Jul-25 21:33N 38°44' E 009°09'1 1.4
2014-Jul-25 20:33N 38°44' E 009°10'2 1.5
2014-Jul-25 19:33N 38°45' E 009°12'1 1.4
2014-Jul-25 18:33N 38°46' E 009°13'2 1.5
2014-Jul-25 17:32N 38°47' E 009°15'2 1.5
2014-Jul-25 16:32N 38°48' E 009°17'2 1.6
2014-Jul-25 15:33N 38°49' E 009°18'6 5.8
2014-Jul-25 14:33N 38°44' E 009°14'13 9.9
2014-Jul-25 13:17N 38°36' E 009°02'1 1.8
2014-Jul-25 12:33N 38°36' E 009°04'2 1.9
2014-Jul-25 11:33N 38°37' E 009°06'2 1.6
2014-Jul-25 10:32N 38°38' E 009°08'2 1.6
2014-Jul-25 09:29N 38°38' E 009°10'1 1.6
2014-Jul-25 08:33N 38°39' E 009°11'2 1.8
2014-Jul-25 07:32N 38°40' E 009°13'2 1.5
2014-Jul-25 06:33N 38°41' E 009°15'1 0.9
2014-Jul-25 05:33N 38°41' E 009°16'1 1.0
2014-Jul-25 04:33N 38°41' E 009°17'1 0.9
2014-Jul-25 03:33N 38°42' E 009°18'1 0.7
2014-Jul-25 02:33N 38°42' E 009°19'1 0.5
2014-Jul-25 01:32N 38°42' E 009°20'1 0.6
2014-Jul-25 00:33N 38°42' E 009°21'1 0.5
2014-Jul-24 23:33N 38°42' E 009°21'1 0.6
2014-Jul-24 22:33N 38°42' E 009°22'1 0.7
2014-Jul-24 21:33N 38°43' E 009°22'1 0.8
2014-Jul-24 20:32N 38°44' E 009°22'1 0.7
2014-Jul-24 19:33N 38°44' E 009°22'1 0.7
2014-Jul-24 18:33N 38°45' E 009°22'1 0.8
2014-Jul-24 17:33N 38°46' E 009°21'1 0.9
2014-Jul-24 16:33N 38°46' E 009°20'1 0.8
2014-Jul-24 15:34N 38°47' E 009°20'2 1.9
2014-Jul-24 14:33N 38°49' E 009°19'1211.6
2014-Jul-24 13:33N 38°46' E 009°33'4 2.2
2014-Jul-24 11:33N 38°42' E 009°37'0 0.4
2014-Jul-24 10:33N 38°42' E 009°36'0 0.5
2014-Jul-24 09:34N 38°42' E 009°35'2 0.6
2014-Jul-24 06:04N 38°43' E 009°33'12 0.7
2014-Jul-23 12:06N 38°49' E 009°19'1 0.9
2014-Jul-23 11:19N 38°49' E 009°19'0 0.2
2014-Jul-23 10:07N 38°48' E 009°19'1 1.0
2014-Jul-23 09:33N 38°48' E 009°19'8 0.5
2014-Jul-22 18:26N 38°41' E 009°24'2 2.1
2014-Jul-22 17:32N 38°43' E 009°23'2 2.2
2014-Jul-22 16:33N 38°45' E 009°22'3 2.6
2014-Jul-22 15:33N 38°48' E 009°21'7 6.8
2014-Jul-22 14:33N 38°50' E 009°30'6 1.9
2014-Jul-22 11:19N 38°47' E 009°37'1 1.3
2014-Jul-22 10:33N 38°46' E 009°36'1 1.1
2014-Jul-22 09:33N 38°46' E 009°34'5 1.6
2014-Jul-22 06:33N 38°46' E 009°28'2 1.6
2014-Jul-22 05:33N 38°46' E 009°26'2 1.5
2014-Jul-22 04:33N 38°45' E 009°24'1 1.3
2014-Jul-22 03:33N 38°45' E 009°22'1 1.2
2014-Jul-22 02:33N 38°45' E 009°21'1 1.1
2014-Jul-22 01:33N 38°44' E 009°20'1 0.9
2014-Jul-22 00:34N 38°44' E 009°18'1 0.7
2014-Jul-21 23:33N 38°44' E 009°18'1 0.6
2014-Jul-21 22:33N 38°45' E 009°17'6 6.3
2014-Jul-21 21:32N 38°39' E 009°20'8 2.6
2014-Jul-21 18:27N 38°31' E 009°21'2 2.1
2014-Jul-21 17:33N 38°32' E 009°20'2 2.1
2014-Jul-21 16:33N 38°34' E 009°19'6 2.1
2014-Jul-21 13:33N 38°39' E 009°14'2 1.7
2014-Jul-21 12:33N 38°41' E 009°13'2 1.5
2014-Jul-21 11:27N 38°42' E 009°12'3 3.3
2014-Jul-21 10:32N 38°43' E 009°09'1111.4
2014-Jul-21 09:33N 38°42' E 008°54'1513.0
2014-Jul-21 08:23N 38°42' E 008°35'1113.3
2014-Jul-21 07:33N 38°42' E 008°20'  
Track history (hours):
 
Tides and Currents Weather Stations Pressure Air Temp Water Temp Dewpoint Dewpoint Depression Visibility Wind Speed Wind Dir Waves Ship Positions

Green Stars

Last reported at 2014-Jul-31 00:31 UTC. Time now 2014-Jul-31 09:31 UTC.
Position N 35°58' W 000°10'.

Length 182 m; draft 9.9 m.

Type: Tanker. MMSI: 538004247.

Date/timePositionNaut miles runAvg speedWind from/ knotsBaromVisibWave heightAir tempDewpointWater temp
2014-Jul-31 00:31N 35°58' W 000°10'0 0.2
2014-Jul-30 23:32N 35°58' W 000°10'1 0.8
2014-Jul-30 22:33N 35°58' W 000°11'5 4.9
2014-Jul-30 21:27N 35°60' W 000°18'0 0.5
2014-Jul-30 20:32N 35°60' W 000°17'1 0.6
2014-Jul-30 19:33N 35°59' W 000°16'1 0.8
2014-Jul-30 18:20N 35°60' W 000°15'1 0.9
2014-Jul-30 17:32N 35°60' W 000°14'1 1.0
2014-Jul-30 16:33N 35°60' W 000°13'1 1.4
2014-Jul-30 15:33N 36°00' W 000°11'1 1.4
2014-Jul-30 14:33N 36°01' W 000°10'51 8.3
2014-Jul-30 08:29N 36°39' E 000°32'195 6.3
2014-Jul-29 01:24N 37°39' E 004°25'1713.2
2014-Jul-29 00:04N 37°44' E 004°46'1312.8
2014-Jul-28 23:05N 37°48' E 005°01'712.7
2014-Jul-28 22:32N 37°50' E 005°10'2712.9
2014-Jul-28 20:29N 37°59' E 005°42'12413.8
2014-Jul-28 11:29N 38°37' E 008°12'1513.0
2014-Jul-28 10:20N 38°41' E 008°30'1013.0
2014-Jul-28 09:33N 38°44' E 008°43'1312.7
2014-Jul-28 08:33N 38°49' E 008°58'1212.4
2014-Jul-28 07:33N 38°60' E 009°06'5 5.2
2014-Jul-28 06:33N 39°04' E 009°03'0 0.1
2014-Jul-28 05:33N 39°05' E 009°03'0 0.5
2014-Jul-28 04:33N 39°05' E 009°03'1 0.7
2014-Jul-28 03:33N 39°05' E 009°02'0 0.0
2014-Jul-28 02:30N 39°05' E 009°02'0 0.0
2014-Jul-28 01:33N 39°05' E 009°02'0 0.0
2014-Jul-28 00:33N 39°05' E 009°02'0 0.0
2014-Jul-27 23:33N 39°05' E 009°02'0 0.0
2014-Jul-27 22:33N 39°05' E 009°02'0 0.0
2014-Jul-27 21:33N 39°05' E 009°02'0 0.0
2014-Jul-27 20:33N 39°05' E 009°02'0 0.0
2014-Jul-27 19:33N 39°05' E 009°02'0 0.0
2014-Jul-27 18:33N 39°05' E 009°02'0 0.0
2014-Jul-27 17:33N 39°05' E 009°02'0 0.0
2014-Jul-27 16:27N 39°05' E 009°02'0 0.0
2014-Jul-27 15:33N 39°05' E 009°02'0 0.0
2014-Jul-27 14:33N 39°05' E 009°02'0 0.0
2014-Jul-27 13:33N 39°05' E 009°02'0 0.0
2014-Jul-27 12:33N 39°05' E 009°02'0 0.0
2014-Jul-27 11:30N 39°05' E 009°02'0 0.0
2014-Jul-27 10:33N 39°05' E 009°02'0 0.0
2014-Jul-27 09:33N 39°05' E 009°02'0 0.0
2014-Jul-27 08:33N 39°05' E 009°02'0 0.0
2014-Jul-27 07:33N 39°05' E 009°02'0 0.0
2014-Jul-27 06:33N 39°05' E 009°02'0 0.0
2014-Jul-27 05:33N 39°05' E 009°02'0 0.0
2014-Jul-27 04:33N 39°05' E 009°02'0 0.0
2014-Jul-27 03:34N 39°05' E 009°02'1 1.2
2014-Jul-27 02:33N 39°05' E 009°04'3 2.6
2014-Jul-27 01:32N 39°02' E 009°05'0 0.1
2014-Jul-27 00:32N 39°02' E 009°05'0 0.0
2014-Jul-26 23:33N 39°02' E 009°05'0 0.1
2014-Jul-26 22:33N 39°02' E 009°05'3 3.0
2014-Jul-26 21:33N 38°59' E 009°05'7 7.3
2014-Jul-26 20:33N 38°52' E 009°05'2 1.9
2014-Jul-26 19:32N 38°50' E 009°05'9 8.7
2014-Jul-26 18:33N 38°41' E 009°03'1010.0
2014-Jul-26 17:33N 38°32' E 008°60'4 4.0
2014-Jul-26 16:33N 38°28' E 008°57'2 1.8
2014-Jul-26 15:33N 38°29' E 008°55'2 1.8
2014-Jul-26 14:34N 38°30' E 008°53'2 1.7
2014-Jul-26 13:33N 38°30' E 008°51'2 1.6
2014-Jul-26 12:33N 38°30' E 008°49'1 1.4
2014-Jul-26 11:33N 38°30' E 008°47'1 0.7
2014-Jul-26 10:33N 38°30' E 008°46'1 0.5
2014-Jul-26 09:32N 38°31' E 008°46'1 0.7
2014-Jul-26 08:33N 38°31' E 008°46'1 1.2
2014-Jul-26 07:33N 38°31' E 008°48'2 1.8
2014-Jul-26 06:33N 38°32' E 008°50'4 2.1
2014-Jul-26 04:26N 38°35' E 008°55'2 2.3
2014-Jul-26 03:33N 38°36' E 008°57'3 2.3
2014-Jul-26 02:18N 38°38' E 008°59'2 2.3
2014-Jul-26 01:33N 38°39' E 009°01'2 2.3
2014-Jul-26 00:33N 38°40' E 009°04'2 2.1
2014-Jul-25 23:33N 38°42' E 009°05'2 1.8
2014-Jul-25 22:33N 38°43' E 009°07'2 1.6
2014-Jul-25 21:33N 38°44' E 009°09'1 1.4
2014-Jul-25 20:33N 38°44' E 009°10'2 1.5
2014-Jul-25 19:33N 38°45' E 009°12'1 1.4
2014-Jul-25 18:33N 38°46' E 009°13'2 1.5
2014-Jul-25 17:32N 38°47' E 009°15'2 1.5
2014-Jul-25 16:32N 38°48' E 009°17'2 1.6
2014-Jul-25 15:33N 38°49' E 009°18'6 5.8
2014-Jul-25 14:33N 38°44' E 009°14'13 9.9
2014-Jul-25 13:17N 38°36' E 009°02'1 1.8
2014-Jul-25 12:33N 38°36' E 009°04'2 1.9
2014-Jul-25 11:33N 38°37' E 009°06'2 1.6
2014-Jul-25 10:32N 38°38' E 009°08'2 1.6
2014-Jul-25 09:29N 38°38' E 009°10'1 1.6
2014-Jul-25 08:33N 38°39' E 009°11'2 1.8
2014-Jul-25 07:32N 38°40' E 009°13'2 1.5
2014-Jul-25 06:33N 38°41' E 009°15'1 0.9
2014-Jul-25 05:33N 38°41' E 009°16'1 1.0
2014-Jul-25 04:33N 38°41' E 009°17'1 0.9
2014-Jul-25 03:33N 38°42' E 009°18'1 0.7
2014-Jul-25 02:33N 38°42' E 009°19'1 0.5
2014-Jul-25 01:32N 38°42' E 009°20'1 0.6
2014-Jul-25 00:33N 38°42' E 009°21'1 0.5
2014-Jul-24 23:33N 38°42' E 009°21'1 0.6
2014-Jul-24 22:33N 38°42' E 009°22'1 0.7
2014-Jul-24 21:33N 38°43' E 009°22'1 0.8
2014-Jul-24 20:32N 38°44' E 009°22'1 0.7
2014-Jul-24 19:33N 38°44' E 009°22'1 0.7
2014-Jul-24 18:33N 38°45' E 009°22'1 0.8
2014-Jul-24 17:33N 38°46' E 009°21'1 0.9
2014-Jul-24 16:33N 38°46' E 009°20'1 0.8
2014-Jul-24 15:34N 38°47' E 009°20'2 1.9
2014-Jul-24 14:33N 38°49' E 009°19'1211.6
2014-Jul-24 13:33N 38°46' E 009°33'4 2.2
2014-Jul-24 11:33N 38°42' E 009°37'0 0.4
2014-Jul-24 10:33N 38°42' E 009°36'0 0.5
2014-Jul-24 09:34N 38°42' E 009°35'2 0.6
2014-Jul-24 06:04N 38°43' E 009°33'12 0.7
2014-Jul-23 12:06N 38°49' E 009°19'1 0.9
2014-Jul-23 11:19N 38°49' E 009°19'0 0.2
2014-Jul-23 10:07N 38°48' E 009°19'1 1.0
2014-Jul-23 09:33N 38°48' E 009°19'8 0.5
2014-Jul-22 18:26N 38°41' E 009°24'2 2.1
2014-Jul-22 17:32N 38°43' E 009°23'2 2.2
2014-Jul-22 16:33N 38°45' E 009°22'3 2.6
2014-Jul-22 15:33N 38°48' E 009°21'7 6.8
2014-Jul-22 14:33N 38°50' E 009°30'6 1.9
2014-Jul-22 11:19N 38°47' E 009°37'1 1.3
2014-Jul-22 10:33N 38°46' E 009°36'1 1.1
2014-Jul-22 09:33N 38°46' E 009°34'5 1.6
2014-Jul-22 06:33N 38°46' E 009°28'2 1.6
2014-Jul-22 05:33N 38°46' E 009°26'2 1.5
2014-Jul-22 04:33N 38°45' E 009°24'1 1.3
2014-Jul-22 03:33N 38°45' E 009°22'1 1.2
2014-Jul-22 02:33N 38°45' E 009°21'1 1.1
2014-Jul-22 01:33N 38°44' E 009°20'1 0.9
2014-Jul-22 00:34N 38°44' E 009°18'1 0.7
2014-Jul-21 23:33N 38°44' E 009°18'1 0.6
2014-Jul-21 22:33N 38°45' E 009°17'6 6.3
2014-Jul-21 21:32N 38°39' E 009°20'8 2.6
2014-Jul-21 18:27N 38°31' E 009°21'2 2.1
2014-Jul-21 17:33N 38°32' E 009°20'2 2.1
2014-Jul-21 16:33N 38°34' E 009°19'6 2.1
2014-Jul-21 13:33N 38°39' E 009°14'2 1.7
2014-Jul-21 12:33N 38°41' E 009°13'2 1.5
2014-Jul-21 11:27N 38°42' E 009°12'3 3.3
2014-Jul-21 10:32N 38°43' E 009°09'1111.4
2014-Jul-21 09:33N 38°42' E 008°54'1513.0
2014-Jul-21 08:23N 38°42' E 008°35'1113.3
2014-Jul-21 07:33N 38°42' E 008°20'  

Dump ship's entire track history